createdAt,value
2018-02-10T00:00:14.102Z,80.56
2018-02-10T00:01:21.702Z,80.27
2018-02-10T00:02:26.588Z,80.13
2018-02-10T00:03:30.884Z,80.23
2018-02-10T00:04:35.123Z,80.15
2018-02-10T00:05:39.333Z,80.21
2018-02-10T00:06:43.507Z,80.21
2018-02-10T00:07:47.792Z,80.12
2018-02-10T00:08:51.994Z,80.17
2018-02-10T00:09:56.200Z,80.20
2018-02-10T00:11:00.636Z,80.16
2018-02-10T00:12:04.979Z,80.22
2018-02-10T00:13:09.219Z,80.47
2018-02-10T00:14:13.796Z,80.31
2018-02-10T00:15:18.252Z,80.25
2018-02-10T00:16:22.476Z,80.41
2018-02-10T00:17:27.192Z,80.15
2018-02-10T00:18:31.354Z,80.22
2018-02-10T00:19:35.580Z,80.21
2018-02-10T00:20:40.109Z,80.31
2018-02-10T00:21:44.377Z,80.53
2018-02-10T00:22:49.904Z,80.40
2018-02-10T00:23:54.141Z,80.40
2018-02-10T00:24:58.577Z,80.46
2018-02-10T00:26:03.357Z,80.54
2018-02-10T00:27:07.937Z,80.61
2018-02-10T00:28:12.263Z,80.79
2018-02-10T00:29:16.458Z,80.72
2018-02-10T00:30:21.127Z,80.67
2018-02-10T00:31:25.290Z,80.72
2018-02-10T00:32:29.543Z,80.69
2018-02-10T00:33:34.040Z,80.70
2018-02-10T00:34:38.346Z,80.70
2018-02-10T00:35:42.612Z,80.77
2018-02-10T00:36:46.971Z,80.80
2018-02-10T00:37:51.166Z,80.74
2018-02-10T00:38:55.829Z,80.79
2018-02-10T00:40:00.278Z,80.85
2018-02-10T00:41:04.839Z,80.88
2018-02-10T00:42:09.292Z,81.02
2018-02-10T00:43:14.449Z,81.11
2018-02-10T00:44:18.742Z,81.34
2018-02-10T00:45:23.880Z,81.22
2018-02-10T00:46:28.077Z,81.33
2018-02-10T00:47:32.287Z,81.24
2018-02-10T00:48:36.696Z,81.10
2018-02-10T00:49:40.921Z,81.04
2018-02-10T00:50:45.112Z,81.11
2018-02-10T00:51:49.728Z,81.28
2018-02-10T00:52:53.908Z,81.40
2018-02-10T00:53:58.214Z,81.62
2018-02-10T00:55:02.765Z,81.65
2018-02-10T00:56:06.964Z,81.62
2018-02-10T00:57:12.376Z,81.70
2018-02-10T00:58:16.523Z,81.66
2018-02-10T00:59:20.721Z,81.48
2018-02-10T01:01:32.664Z,81.43
2018-02-10T01:02:37.315Z,81.42
2018-02-10T01:03:41.706Z,81.40
2018-02-10T01:04:46.285Z,81.21
2018-02-10T01:05:50.473Z,81.18
2018-02-10T01:06:54.688Z,81.06
2018-02-10T01:07:58.960Z,81.00
2018-02-10T01:09:03.489Z,81.12
2018-02-10T01:10:07.652Z,81.29
2018-02-10T01:11:12.672Z,81.33
2018-02-10T01:12:17.290Z,81.50
2018-02-10T01:13:21.729Z,81.68
2018-02-10T01:14:25.928Z,81.54
2018-02-10T01:15:30.354Z,81.50
2018-02-10T01:16:34.828Z,81.57
2018-02-10T01:17:38.956Z,81.68
2018-02-10T01:18:43.080Z,81.76
2018-02-10T01:19:47.241Z,81.85
2018-02-10T01:20:51.420Z,81.90
2018-02-10T01:21:56.026Z,81.84
2018-02-10T01:23:00.401Z,81.78
2018-02-10T01:24:04.816Z,81.60
2018-02-10T01:25:08.965Z,81.46
2018-02-10T01:26:14.003Z,81.43
2018-02-10T01:27:18.304Z,81.50
2018-02-10T01:28:22.817Z,81.65
2018-02-10T01:29:26.966Z,81.75
2018-02-10T01:30:31.588Z,81.80
2018-02-10T01:31:35.746Z,81.94
2018-02-10T01:32:40.008Z,82.02
2018-02-10T01:33:44.524Z,82.28
2018-02-10T01:34:49.099Z,82.37
2018-02-10T01:35:53.244Z,82.52
2018-02-10T01:36:57.496Z,82.60
2018-02-10T01:38:02.303Z,82.62
2018-02-10T01:39:07.729Z,82.83
2018-02-10T01:40:12.522Z,82.99
2018-02-10T01:41:16.724Z,82.98
2018-02-10T01:42:21.388Z,82.75
2018-02-10T01:43:25.612Z,82.32
2018-02-10T01:44:29.920Z,82.45
2018-02-10T01:45:34.271Z,82.24
2018-02-10T01:46:38.731Z,81.90
2018-02-10T01:47:44.219Z,81.47
2018-02-10T01:48:49.411Z,81.05
2018-02-10T01:50:02.477Z,80.57
2018-02-10T01:51:06.675Z,79.68
2018-02-10T01:52:11.150Z,79.17
2018-02-10T01:53:17.033Z,78.97
2018-02-10T01:54:22.577Z,78.86
2018-02-10T01:55:26.712Z,78.72
2018-02-10T01:56:30.929Z,78.71
2018-02-10T01:57:35.087Z,78.79
2018-02-10T01:58:39.217Z,78.43
2018-02-10T01:59:43.331Z,78.37
2018-02-10T02:00:48.296Z,78.44
2018-02-10T02:01:52.512Z,78.56
2018-02-10T02:02:56.678Z,78.71
2018-02-10T02:04:01.149Z,78.59
2018-02-10T02:05:05.647Z,78.22
2018-02-10T02:06:09.948Z,77.96
2018-02-10T02:07:15.236Z,77.90
2018-02-10T02:08:19.619Z,77.75
2018-02-10T02:09:24.692Z,77.56
2018-02-10T02:10:28.913Z,77.62
2018-02-10T02:11:33.048Z,77.34
2018-02-10T02:12:37.187Z,77.39
2018-02-10T02:13:41.828Z,77.29
2018-02-10T02:14:45.997Z,77.08
2018-02-10T02:15:50.540Z,77.16
2018-02-10T02:16:54.682Z,77.14
2018-02-10T02:17:59.183Z,77.12
2018-02-10T02:19:03.620Z,77.34
2018-02-10T02:20:08.228Z,77.49
2018-02-10T02:21:12.973Z,77.77
2018-02-10T02:22:17.124Z,77.88
2018-02-10T02:23:21.879Z,77.97
2018-02-10T02:24:27.012Z,78.06
2018-02-10T02:25:31.328Z,78.08
2018-02-10T02:26:35.528Z,77.70
2018-02-10T02:27:39.695Z,77.57
2018-02-10T02:28:43.868Z,77.49
2018-02-10T02:29:48.051Z,77.31
2018-02-10T02:30:52.592Z,77.38
2018-02-10T02:31:57.332Z,77.15
2018-02-10T02:33:02.441Z,77.17
2018-02-10T02:34:06.940Z,77.39
2018-02-10T02:35:11.372Z,77.77
2018-02-10T02:36:15.532Z,77.72
2018-02-10T02:37:19.688Z,77.64
2018-02-10T02:38:24.980Z,77.59
2018-02-10T02:39:29.907Z,77.79
2018-02-10T02:40:34.251Z,77.65
2018-02-10T02:41:38.503Z,77.85
2018-02-10T02:42:42.625Z,77.66
2018-02-10T02:43:47.179Z,77.82
2018-02-10T02:44:51.789Z,78.07
2018-02-10T02:45:56.280Z,77.84
2018-02-10T02:47:00.905Z,78.04
2018-02-10T02:48:05.400Z,77.82
2018-02-10T02:49:09.575Z,77.90
2018-02-10T02:50:13.754Z,77.99
2018-02-10T02:51:18.449Z,78.15
2018-02-10T02:52:23.164Z,78.27
2018-02-10T02:53:28.233Z,78.25
2018-02-10T02:54:32.442Z,78.46
2018-02-10T02:55:36.908Z,78.40
2018-02-10T02:56:41.070Z,78.62
2018-02-10T02:57:45.519Z,78.70
2018-02-10T02:58:49.668Z,78.59
2018-02-10T02:59:53.864Z,78.50
2018-02-10T03:00:58.332Z,78.78
2018-02-10T03:02:02.701Z,79.01
2018-02-10T03:03:07.522Z,79.38
2018-02-10T03:04:11.679Z,79.68
2018-02-10T03:05:16.060Z,81.04
2018-02-10T03:06:20.207Z,80.42
2018-02-10T03:07:24.622Z,80.42
2018-02-10T03:08:29.268Z,80.66
2018-02-10T03:09:33.492Z,80.66
2018-02-10T03:10:37.723Z,80.31
2018-02-10T03:11:41.872Z,80.29
2018-02-10T03:12:46.064Z,80.29
2018-02-10T03:13:50.237Z,80.12
2018-02-10T03:14:54.811Z,80.05
2018-02-10T03:15:59.556Z,80.21
2018-02-10T03:17:04.054Z,80.33
2018-02-10T03:18:08.311Z,80.39
2018-02-10T03:19:13.311Z,80.28
2018-02-10T03:20:17.536Z,80.37
2018-02-10T03:21:22.155Z,80.50
2018-02-10T03:22:26.355Z,80.62
2018-02-10T03:23:30.488Z,80.73
2018-02-10T03:24:34.637Z,80.85
2018-02-10T03:25:39.012Z,80.97
2018-02-10T03:26:43.497Z,81.02
2018-02-10T03:27:47.659Z,81.07
2018-02-10T03:28:52.288Z,81.13
2018-02-10T03:29:56.803Z,81.60
2018-02-10T03:31:01.603Z,81.14
2018-02-10T03:32:06.118Z,81.36
2018-02-10T03:33:11.348Z,81.08
2018-02-10T03:34:15.941Z,81.22
2018-02-10T03:35:20.092Z,81.38
2018-02-10T03:36:24.271Z,81.14
2018-02-10T03:37:28.684Z,81.01
2018-02-10T03:38:33.560Z,81.13
2018-02-10T03:39:38.097Z,81.09
2018-02-10T03:40:42.573Z,81.07
2018-02-10T03:41:46.981Z,81.09
2018-02-10T03:42:51.279Z,81.12
2018-02-10T03:43:55.999Z,81.24
2018-02-10T03:45:00.968Z,81.17
2018-02-10T03:46:06.713Z,81.17
2018-02-10T03:47:11.553Z,81.33
2018-02-10T03:48:15.970Z,81.36
2018-02-10T03:49:20.543Z,81.33
2018-02-10T03:50:25.037Z,81.53
2018-02-10T03:51:29.812Z,81.36
2018-02-10T03:52:33.920Z,81.40
2018-02-10T03:53:38.297Z,81.47
2018-02-10T03:54:42.789Z,81.53
2018-02-10T03:55:46.930Z,81.76
2018-02-10T03:56:51.105Z,81.97
2018-02-10T03:57:55.225Z,82.35
2018-02-10T03:58:59.647Z,82.48
2018-02-10T04:00:05.157Z,82.53
2018-02-10T04:01:10.223Z,82.50
2018-02-10T04:02:14.411Z,82.41
2018-02-10T04:03:18.570Z,82.38
2018-02-10T04:04:23.197Z,82.37
2018-02-10T04:05:27.845Z,82.26
2018-02-10T04:06:32.136Z,82.20
2018-02-10T04:07:36.299Z,82.09
2018-02-10T04:08:40.440Z,82.03
2018-02-10T04:09:44.593Z,81.98
2018-02-10T04:10:49.341Z,81.84
2018-02-10T04:11:53.471Z,81.87
2018-02-10T04:12:57.791Z,82.01
2018-02-10T04:14:02.476Z,82.04
2018-02-10T04:15:07.056Z,81.85
2018-02-10T04:16:12.620Z,81.80
2018-02-10T04:17:17.142Z,81.92
2018-02-10T04:18:21.269Z,82.06
2018-02-10T04:19:26.308Z,82.21
2018-02-10T04:20:30.458Z,82.33
2018-02-10T04:21:34.668Z,82.41
2018-02-10T04:22:38.803Z,82.49
2018-02-10T04:23:43.479Z,82.38
2018-02-10T04:24:48.721Z,82.23
2018-02-10T04:25:52.871Z,82.11
2018-02-10T04:26:57.276Z,82.04
2018-02-10T04:28:01.936Z,82.11
2018-02-10T04:29:06.453Z,81.87
2018-02-10T04:30:12.946Z,81.80
2018-02-10T04:31:17.513Z,81.82
2018-02-10T04:32:22.063Z,81.79
2018-02-10T04:33:27.092Z,81.98
2018-02-10T04:34:31.467Z,82.20
2018-02-10T04:35:35.660Z,82.45
2018-02-10T04:36:40.191Z,82.58
2018-02-10T04:37:44.421Z,82.63
2018-02-10T04:38:48.687Z,82.57
2018-02-10T04:39:52.807Z,82.66
2018-02-10T04:40:56.940Z,82.58
2018-02-10T04:42:01.360Z,82.58
2018-02-10T04:43:05.803Z,82.61
2018-02-10T04:44:10.005Z,82.48
2018-02-10T04:45:16.529Z,82.40
2018-02-10T04:46:21.579Z,82.32
2018-02-10T04:47:26.355Z,82.20
2018-02-10T04:48:30.504Z,82.24
2018-02-10T04:49:35.195Z,82.35
2018-02-10T04:50:39.315Z,82.53
2018-02-10T04:51:43.533Z,82.63
2018-02-10T04:52:47.760Z,82.58
2018-02-10T04:53:52.758Z,82.68
2018-02-10T04:54:56.911Z,82.71
2018-02-10T04:56:01.757Z,82.78
2018-02-10T04:57:06.051Z,83.04
2018-02-10T04:58:10.202Z,83.15
2018-02-10T04:59:15.337Z,83.01
2018-02-10T05:00:19.771Z,82.90
2018-02-10T05:01:23.930Z,82.88
2018-02-10T05:02:28.475Z,82.51
2018-02-10T05:03:32.600Z,82.50
2018-02-10T05:04:36.755Z,82.54
2018-02-10T05:05:40.919Z,82.65
2018-02-10T05:06:45.061Z,82.82
2018-02-10T05:07:49.382Z,82.85
2018-02-10T05:08:53.894Z,82.57
2018-02-10T05:09:58.673Z,82.51
2018-02-10T05:11:03.470Z,82.55
2018-02-10T05:12:07.626Z,82.80
2018-02-10T05:13:11.845Z,83.01
2018-02-10T05:14:15.999Z,83.17
2018-02-10T05:15:20.562Z,83.05
2018-02-10T05:16:25.125Z,83.02
2018-02-10T05:17:29.358Z,83.27
2018-02-10T05:18:33.506Z,83.21
2018-02-10T05:19:38.400Z,83.11
2018-02-10T05:20:42.943Z,83.08
2018-02-10T05:21:47.122Z,83.09
2018-02-10T05:22:51.275Z,83.26
2018-02-10T05:23:55.659Z,83.42
2018-02-10T05:25:00.406Z,83.63
2018-02-10T05:26:05.584Z,83.83
2018-02-10T05:27:10.324Z,84.00
2018-02-10T05:28:14.742Z,84.20
2018-02-10T05:29:19.636Z,84.20
2018-02-10T05:30:24.138Z,84.08
2018-02-10T05:31:29.425Z,84.02
2018-02-10T05:32:34.187Z,84.10
2018-02-10T05:33:38.964Z,84.30
2018-02-10T05:34:43.279Z,84.59
2018-02-10T05:35:47.620Z,84.86
2018-02-10T05:36:51.752Z,85.08
2018-02-10T05:37:56.388Z,85.29
2018-02-10T05:39:00.523Z,85.46
2018-02-10T05:40:05.106Z,85.55
2018-02-10T05:41:09.824Z,85.67
2018-02-10T05:42:14.340Z,85.78
2018-02-10T05:43:19.778Z,85.88
2018-02-10T05:44:23.939Z,85.96
2018-02-10T05:45:28.660Z,85.78
2018-02-10T05:46:32.811Z,85.49
2018-02-10T05:47:36.943Z,85.17
2018-02-10T05:48:42.210Z,84.58
2018-02-10T05:49:46.345Z,84.52
2018-02-10T05:50:50.572Z,84.35
2018-02-10T05:51:55.148Z,84.24
2018-02-10T05:52:59.271Z,84.17
2018-02-10T05:54:03.419Z,84.26
2018-02-10T05:55:07.538Z,84.15
2018-02-10T05:56:11.875Z,83.85
2018-02-10T05:57:16.159Z,83.42
2018-02-10T05:58:20.621Z,82.95
2018-02-10T05:59:24.773Z,82.83
2018-02-10T06:00:29.396Z,82.62
2018-02-10T06:01:33.971Z,82.31
2018-02-10T06:02:38.892Z,82.04
2018-02-10T06:03:43.432Z,81.54
2018-02-10T06:04:47.750Z,81.12
2018-02-10T06:05:52.371Z,80.76
2018-02-10T06:06:56.852Z,79.84
2018-02-10T06:08:01.122Z,79.03
2018-02-10T06:09:05.951Z,78.96
2018-02-10T06:10:10.634Z,78.59
2018-02-10T06:11:15.320Z,78.13
2018-02-10T06:12:19.478Z,77.77
2018-02-10T06:13:23.616Z,78.16
2018-02-10T06:14:27.749Z,78.39
2018-02-10T06:15:32.428Z,78.46
2018-02-10T06:16:37.100Z,78.37
2018-02-10T06:17:41.228Z,78.51
2018-02-10T06:18:45.402Z,78.80
2018-02-10T06:19:49.543Z,78.60
2018-02-10T06:20:53.763Z,78.41
2018-02-10T06:21:58.461Z,78.15
2018-02-10T06:23:02.603Z,78.02
2018-02-10T06:24:06.829Z,77.93
2018-02-10T06:25:11.903Z,78.00
2018-02-10T06:26:16.117Z,77.87
2018-02-10T06:27:20.368Z,77.96
2018-02-10T06:28:25.647Z,78.27
2018-02-10T06:29:29.782Z,78.37
2018-02-10T06:30:34.343Z,78.53
2018-02-10T06:31:38.627Z,78.52
2018-02-10T06:32:43.018Z,79.03
2018-02-10T06:33:47.521Z,79.01
2018-02-10T06:34:52.361Z,79.46
2018-02-10T06:35:56.498Z,79.48
2018-02-10T06:37:00.819Z,79.62
2018-02-10T06:38:04.963Z,79.95
2018-02-10T06:39:09.262Z,80.44
2018-02-10T06:40:14.844Z,80.87
2018-02-10T06:41:19.293Z,80.80
2018-02-10T06:42:24.720Z,81.04
2018-02-10T06:43:29.080Z,80.46
2018-02-10T06:44:33.436Z,80.21
2018-02-10T06:45:39.225Z,80.57
2018-02-10T06:46:43.783Z,80.42
2018-02-10T06:47:48.317Z,81.10
2018-02-10T06:48:52.748Z,80.95
2018-02-10T06:49:57.343Z,80.93
2018-02-10T06:51:01.832Z,81.07
2018-02-10T06:52:06.688Z,81.39
2018-02-10T06:53:11.152Z,81.18
2018-02-10T06:54:15.929Z,81.04
2018-02-10T06:55:20.382Z,81.54
2018-02-10T06:56:24.824Z,81.83
2018-02-10T06:57:28.969Z,81.68
2018-02-10T06:58:34.737Z,82.08
2018-02-10T06:59:38.919Z,81.95
2018-02-10T07:00:43.424Z,81.88
2018-02-10T07:01:47.907Z,81.88
2018-02-10T07:02:52.174Z,82.17
2018-02-10T07:03:56.354Z,81.87
2018-02-10T07:05:00.509Z,81.85
2018-02-10T07:06:04.671Z,81.83
2018-02-10T07:07:08.825Z,81.99
2018-02-10T07:08:13.177Z,82.19
2018-02-10T07:09:18.889Z,82.55
2018-02-10T07:10:26.876Z,82.85
2018-02-10T07:11:33.079Z,83.19
2018-02-10T07:12:37.231Z,83.49
2018-02-10T07:13:41.508Z,83.66
2018-02-10T07:14:45.635Z,83.48
2018-02-10T07:15:50.132Z,83.55
2018-02-10T07:16:54.586Z,83.36
2018-02-10T07:17:59.484Z,83.18
2018-02-10T07:19:03.933Z,83.11
2018-02-10T07:20:10.966Z,83.14
2018-02-10T07:21:15.764Z,83.19
2018-02-10T07:22:19.916Z,83.17
2018-02-10T07:23:25.098Z,83.24
2018-02-10T07:24:29.652Z,83.42
2018-02-10T07:25:33.795Z,83.65
2018-02-10T07:26:38.123Z,83.97
2018-02-10T07:27:42.336Z,84.36
2018-02-10T07:28:46.529Z,84.63
2018-02-10T07:29:50.737Z,84.82
2018-02-10T07:30:55.970Z,84.90
2018-02-10T07:32:00.121Z,84.73
2018-02-10T07:33:04.444Z,84.09
2018-02-10T07:34:08.583Z,82.88
2018-02-10T07:35:13.019Z,81.39
2018-02-10T07:36:17.776Z,80.66
2018-02-10T07:37:21.972Z,80.31
2018-02-10T07:38:26.646Z,79.82
2018-02-10T07:39:30.973Z,79.27
2018-02-10T07:40:35.795Z,78.90
2018-02-10T07:41:39.936Z,78.75
2018-02-10T07:42:44.689Z,78.78
2018-02-10T07:43:48.886Z,78.58
2018-02-10T07:44:53.019Z,78.15
2018-02-10T07:45:57.389Z,76.75
2018-02-10T07:47:01.519Z,76.05
2018-02-10T07:48:05.663Z,75.11
2018-02-10T07:49:10.295Z,75.03
2018-02-10T07:50:14.975Z,74.87
2018-02-10T07:51:19.132Z,74.97
2018-02-10T07:52:23.295Z,75.07
2018-02-10T07:53:28.231Z,75.24
2018-02-10T07:54:32.476Z,75.20
2018-02-10T07:55:37.303Z,75.26
2018-02-10T07:56:41.459Z,75.54
2018-02-10T07:57:45.755Z,76.04
2018-02-10T07:58:49.938Z,76.27
2018-02-10T07:59:54.120Z,76.66
2018-02-10T08:00:58.591Z,76.88
2018-02-10T08:02:03.362Z,76.96
2018-02-10T08:03:07.529Z,76.93
2018-02-10T08:04:11.880Z,77.54
2018-02-10T08:05:16.612Z,77.35
2018-02-10T08:06:20.852Z,77.17
2018-02-10T08:07:26.781Z,76.35
2018-02-10T08:08:31.467Z,75.60
2018-02-10T08:09:36.133Z,75.47
2018-02-10T08:10:40.316Z,75.56
2018-02-10T08:11:44.736Z,75.19
2018-02-10T08:12:48.883Z,75.07
2018-02-10T08:13:53.024Z,74.27
2018-02-10T08:14:57.496Z,74.04
2018-02-10T08:16:01.971Z,74.07
2018-02-10T08:17:06.226Z,73.91
2018-02-10T08:18:10.571Z,73.50
2018-02-10T08:19:14.967Z,72.55
2018-02-10T08:20:19.125Z,72.23
2018-02-10T08:21:23.377Z,72.67
2018-02-10T08:22:28.164Z,72.67
2018-02-10T08:23:32.309Z,72.69
2018-02-10T08:24:37.433Z,72.90
2018-02-10T08:25:41.648Z,73.00
2018-02-10T08:26:46.232Z,72.57
2018-02-10T08:27:50.445Z,72.69
2018-02-10T08:28:54.605Z,72.77
2018-02-10T08:29:58.756Z,73.10
2018-02-10T08:31:03.242Z,73.24
2018-02-10T08:32:07.903Z,73.71
2018-02-10T08:33:12.290Z,74.00
2018-02-10T08:34:16.745Z,73.99
2018-02-10T08:35:20.923Z,74.32
2018-02-10T08:36:25.284Z,74.38
2018-02-10T08:38:32.875Z,74.72
2018-02-10T08:39:37.666Z,74.71
2018-02-10T08:40:41.895Z,74.85
2018-02-10T08:41:46.142Z,74.92
2018-02-10T08:42:50.304Z,74.58
2018-02-10T08:43:54.480Z,74.50
2018-02-10T08:45:00.104Z,75.10
2018-02-10T08:46:04.468Z,75.67
2018-02-10T08:47:08.717Z,76.32
2018-02-10T08:48:13.215Z,76.10
2018-02-10T08:49:17.578Z,75.99
2018-02-10T08:50:21.743Z,75.88
2018-02-10T08:51:26.850Z,75.66
2018-02-10T08:52:31.448Z,75.62
2018-02-10T08:53:35.691Z,75.83
2018-02-10T08:54:40.660Z,75.35
2018-02-10T08:55:44.817Z,75.11
2018-02-10T08:56:49.014Z,74.65
2018-02-10T08:57:55.300Z,74.14
2018-02-10T08:58:59.540Z,73.60
2018-02-10T09:00:05.290Z,73.63
2018-02-10T09:01:09.882Z,73.43
2018-02-10T09:02:14.467Z,73.44
2018-02-10T09:03:18.865Z,73.93
2018-02-10T09:04:26.674Z,74.01
2018-02-10T09:05:30.888Z,74.12
2018-02-10T09:06:35.996Z,74.18
2018-02-10T09:07:40.911Z,74.24
2018-02-10T09:08:45.108Z,74.56
2018-02-10T09:09:49.315Z,74.35
2018-02-10T09:10:54.010Z,74.26
2018-02-10T09:11:58.163Z,74.20
2018-02-10T09:13:02.503Z,74.13
2018-02-10T09:14:06.742Z,73.91
2018-02-10T09:15:13.590Z,73.65
2018-02-10T09:16:18.635Z,73.86
2018-02-10T09:17:22.849Z,74.05
2018-02-10T09:18:27.053Z,74.37
2018-02-10T09:19:31.269Z,74.66
2018-02-10T09:20:35.479Z,74.43
2018-02-10T09:21:39.862Z,74.28
2018-02-10T09:22:44.413Z,73.98
2018-02-10T09:23:48.584Z,73.72
2018-02-10T09:24:52.730Z,73.64
2018-02-10T09:25:57.011Z,73.44
2018-02-10T09:27:01.168Z,73.57
2018-02-10T09:28:05.344Z,73.52
2018-02-10T09:29:09.883Z,73.48
2018-02-10T09:30:16.981Z,73.80
2018-02-10T09:31:21.344Z,73.93
2018-02-10T09:32:25.548Z,74.05
2018-02-10T09:33:29.748Z,73.92
2018-02-10T09:34:33.931Z,73.75
2018-02-10T09:35:38.581Z,74.22
2018-02-10T09:36:42.889Z,74.05
2018-02-10T09:37:47.222Z,73.92
2018-02-10T09:38:51.394Z,73.79
2018-02-10T09:39:55.622Z,73.81
2018-02-10T09:40:59.870Z,73.39
2018-02-10T09:42:04.093Z,73.39
2018-02-10T09:43:08.355Z,73.29
2018-02-10T09:44:12.621Z,73.09
2018-02-10T09:45:18.709Z,73.25
2018-02-10T09:46:22.921Z,73.29
2018-02-10T09:47:27.158Z,73.36
2018-02-10T09:48:31.832Z,73.75
2018-02-10T09:49:36.114Z,73.26
2018-02-10T09:50:40.353Z,73.86
2018-02-10T09:51:44.570Z,73.94
2018-02-10T09:52:49.017Z,73.98
2018-02-10T09:53:53.225Z,73.86
2018-02-10T09:54:57.768Z,72.40
2018-02-10T09:56:02.008Z,72.65
2018-02-10T09:57:06.221Z,72.74
2018-02-10T09:58:10.453Z,72.81
2018-02-10T09:59:14.758Z,72.88
2018-02-10T10:00:19.510Z,72.94
2018-02-10T10:01:24.140Z,72.68
2018-02-10T10:02:28.330Z,72.50
2018-02-10T10:03:32.704Z,72.88
2018-02-10T10:04:36.883Z,73.28
2018-02-10T10:05:41.144Z,73.13
2018-02-10T10:06:45.341Z,73.50
2018-02-10T10:07:51.992Z,73.54
2018-02-10T10:08:56.565Z,73.94
2018-02-10T10:10:00.728Z,73.76
2018-02-10T10:11:04.954Z,72.78
2018-02-10T10:12:09.189Z,72.41
2018-02-10T10:13:14.197Z,72.09
2018-02-10T10:14:19.142Z,71.61
2018-02-10T10:15:23.841Z,71.49
2018-02-10T10:16:28.064Z,71.47
2018-02-10T10:17:32.249Z,71.21
2018-02-10T10:18:37.342Z,71.15
2018-02-10T10:20:50.078Z,69.87
2018-02-10T10:21:54.293Z,70.12
2018-02-10T10:22:58.601Z,70.78
2018-02-10T10:24:02.845Z,70.93
2018-02-10T10:25:07.072Z,70.48
2018-02-10T10:26:11.374Z,69.85
2018-02-10T10:27:15.992Z,69.71
2018-02-10T10:28:20.260Z,70.18
2018-02-10T10:29:24.493Z,70.35
2018-02-10T10:30:29.932Z,70.08
2018-02-10T10:31:34.900Z,69.61
2018-02-10T10:32:39.114Z,69.58
2018-02-10T10:33:44.558Z,68.98
2018-02-10T10:34:48.774Z,68.58
2018-02-10T10:35:53.112Z,68.78
2018-02-10T10:36:57.384Z,68.90
2018-02-10T10:38:01.588Z,69.87
2018-02-10T10:39:06.099Z,70.20
2018-02-10T10:40:10.347Z,70.32
2018-02-10T10:41:14.625Z,70.42
2018-02-10T10:42:18.864Z,70.46
2018-02-10T10:43:23.175Z,70.22
2018-02-10T10:44:27.540Z,69.61
2018-02-10T10:45:32.763Z,69.53
2018-02-10T10:46:38.273Z,69.98
2018-02-10T10:47:42.528Z,69.83
2018-02-10T10:48:46.854Z,69.96
2018-02-10T10:49:51.718Z,69.95
2018-02-10T10:50:55.959Z,70.45
2018-02-10T10:52:00.194Z,70.77
2018-02-10T10:53:05.617Z,70.96
2018-02-10T10:54:09.816Z,71.07
2018-02-10T10:55:14.137Z,70.37
2018-02-10T10:56:18.423Z,70.01
2018-02-10T10:57:22.619Z,69.70
2018-02-10T10:58:26.930Z,69.88
2018-02-10T10:59:31.514Z,70.22
2018-02-10T11:00:35.987Z,71.10
2018-02-10T11:01:40.499Z,71.51
2018-02-10T11:02:45.273Z,71.25
2018-02-10T11:03:49.520Z,71.21
2018-02-10T11:04:53.753Z,71.31
2018-02-10T11:05:58.956Z,71.69
2018-02-10T11:07:03.269Z,71.66
2018-02-10T11:08:07.481Z,71.65
2018-02-10T11:09:11.663Z,71.70
2018-02-10T11:10:15.982Z,72.58
2018-02-10T11:11:20.216Z,73.35
2018-02-10T11:12:24.589Z,74.13
2018-02-10T11:13:28.786Z,74.41
2018-02-10T11:14:32.980Z,74.01
2018-02-10T11:15:37.417Z,73.56
2018-02-10T11:16:41.940Z,73.84
2018-02-10T11:17:46.780Z,74.09
2018-02-10T11:18:50.976Z,74.19
2018-02-10T11:19:55.192Z,74.14
2018-02-10T11:20:59.471Z,74.40
2018-02-10T11:22:03.694Z,74.11
2018-02-10T11:23:08.248Z,74.32
2018-02-10T11:24:12.487Z,74.79
2018-02-10T11:25:16.748Z,74.74
2018-02-10T11:26:21.039Z,74.94
2018-02-10T11:27:25.305Z,74.16
2018-02-10T11:28:29.536Z,73.43
2018-02-10T11:29:34.249Z,73.33
2018-02-10T11:30:38.767Z,73.72
2018-02-10T11:31:43.500Z,74.67
2018-02-10T11:32:48.601Z,75.09
2018-02-10T11:33:52.849Z,75.65
2018-02-10T11:34:57.089Z,75.93
2018-02-10T11:36:01.340Z,76.25
2018-02-10T11:37:05.654Z,76.14
2018-02-10T11:38:09.957Z,75.73
2018-02-10T11:39:14.209Z,75.57
2018-02-10T11:40:18.411Z,75.26
2018-02-10T11:41:22.646Z,74.65
2018-02-10T11:42:27.353Z,75.38
2018-02-10T11:43:31.644Z,75.50
2018-02-10T11:44:35.845Z,75.13
2018-02-10T11:45:40.396Z,75.83
2018-02-10T11:46:44.685Z,76.99
2018-02-10T11:47:48.909Z,76.81
2018-02-10T11:48:53.610Z,76.79
2018-02-10T11:49:57.814Z,76.01
2018-02-10T11:51:02.520Z,75.97
2018-02-10T11:52:06.733Z,76.45
2018-02-10T11:53:10.983Z,77.72
2018-02-10T11:54:15.332Z,78.01
2018-02-10T11:55:20.077Z,77.67
2018-02-10T11:56:24.483Z,77.29
2018-02-10T11:57:28.737Z,76.84
2018-02-10T11:58:33.126Z,76.53
2018-02-10T11:59:37.378Z,76.29
2018-02-10T12:00:41.905Z,76.47
2018-02-10T12:01:46.525Z,76.60
2018-02-10T12:02:51.484Z,76.90
2018-02-10T12:03:56.525Z,77.98
2018-02-10T12:05:00.733Z,78.26
2018-02-10T12:06:05.012Z,78.35
2018-02-10T12:07:09.678Z,78.00
2018-02-10T12:08:13.909Z,78.15
2018-02-10T12:09:18.237Z,78.72
2018-02-10T12:10:22.554Z,79.37
2018-02-10T12:11:26.887Z,80.31
2018-02-10T12:12:31.128Z,80.10
2018-02-10T12:13:35.752Z,80.50
2018-02-10T12:14:39.991Z,80.66
2018-02-10T12:15:44.618Z,81.07
2018-02-10T12:16:48.890Z,80.34
2018-02-10T12:17:53.107Z,79.62
2018-02-10T12:18:58.346Z,78.97
2018-02-10T12:20:03.033Z,78.44
2018-02-10T12:21:07.341Z,78.49
2018-02-10T12:22:11.539Z,79.30
2018-02-10T12:23:16.724Z,79.76
2018-02-10T12:24:20.987Z,79.68
2018-02-10T12:25:25.270Z,79.45
2018-02-10T12:26:29.559Z,79.34
2018-02-10T12:27:33.773Z,78.52
2018-02-10T12:28:37.981Z,78.20
2018-02-10T12:29:42.211Z,77.71
2018-02-10T12:30:46.759Z,77.50
2018-02-10T12:31:50.997Z,77.27
2018-02-10T12:32:55.527Z,77.02
2018-02-10T12:33:59.810Z,76.80
2018-02-10T12:35:04.943Z,77.06
2018-02-10T12:36:10.285Z,77.57
2018-02-10T12:37:14.559Z,77.58
2018-02-10T12:38:18.760Z,77.13
2018-02-10T12:39:23.437Z,77.31
2018-02-10T12:40:27.759Z,77.20
2018-02-10T12:41:32.011Z,76.78
2018-02-10T12:42:36.181Z,75.99
2018-02-10T12:43:40.422Z,75.70
2018-02-10T12:44:44.680Z,75.90
2018-02-10T12:45:49.661Z,76.79
2018-02-10T12:46:53.867Z,76.31
2018-02-10T12:53:47.123Z,76.58
2018-02-10T12:54:51.445Z,78.67
2018-02-10T12:55:55.728Z,78.28
2018-02-10T12:57:00.024Z,78.27
2018-02-10T12:58:04.688Z,78.04
2018-02-10T12:59:08.928Z,77.73
2018-02-10T13:00:15.514Z,77.55
2018-02-10T13:01:19.736Z,77.94
2018-02-10T13:02:24.049Z,78.57
2018-02-10T13:03:28.415Z,78.34
2018-02-10T13:04:33.261Z,77.89
2018-02-10T13:05:37.458Z,77.81
2018-02-10T13:06:41.704Z,78.49
2018-02-10T13:07:46.009Z,79.41
2018-02-10T13:08:50.307Z,79.95
2018-02-10T13:09:54.545Z,80.12
2018-02-10T13:10:59.186Z,80.52
2018-02-10T13:12:03.413Z,80.40
2018-02-10T13:13:08.180Z,81.02
2018-02-10T13:14:13.374Z,80.95
2018-02-10T13:15:17.816Z,80.26
2018-02-10T13:16:22.048Z,80.45
2018-02-10T13:17:26.619Z,81.01
2018-02-10T13:18:30.940Z,80.70
2018-02-10T13:19:35.164Z,80.31
2018-02-10T13:20:39.429Z,80.54
2018-02-10T13:21:43.637Z,81.21
2018-02-10T13:22:47.864Z,81.27
2018-02-10T13:23:52.609Z,81.22
2018-02-10T13:24:56.807Z,80.87
2018-02-10T13:26:02.473Z,80.64
2018-02-10T13:27:06.695Z,80.64
2018-02-10T13:28:11.588Z,80.98
2018-02-10T13:29:15.898Z,81.21
2018-02-10T13:30:20.848Z,81.64
2018-02-10T13:31:25.059Z,81.90
2018-02-10T13:32:29.290Z,81.71
2018-02-10T13:33:34.215Z,82.06
2018-02-10T13:34:38.538Z,81.83
2018-02-10T13:36:54.957Z,81.83
2018-02-10T13:37:59.193Z,81.79
2018-02-10T13:39:04.106Z,81.52
2018-02-10T13:40:08.348Z,81.64
2018-02-10T13:41:13.170Z,82.03
2018-02-10T13:42:17.759Z,81.61
2018-02-10T13:43:22.051Z,81.79
2018-02-10T13:44:26.289Z,81.65
2018-02-10T13:45:31.437Z,82.36
2018-02-10T13:46:35.730Z,83.05
2018-02-10T13:47:40.039Z,83.17
2018-02-10T13:48:44.820Z,83.26
2018-02-10T13:49:49.064Z,83.50
2018-02-10T13:50:53.350Z,83.18
2018-02-10T13:51:57.689Z,83.28
2018-02-10T13:53:02.065Z,83.04
2018-02-10T13:54:07.018Z,82.99
2018-02-10T13:55:11.504Z,83.09
2018-02-10T13:56:16.615Z,83.27
2018-02-10T13:57:21.771Z,82.78
2018-02-10T13:58:26.009Z,82.13
2018-02-10T13:59:30.522Z,82.32
2018-02-10T14:00:35.072Z,82.05